»·PEaware :: N20431 KPSP-KMRY

N20431 :: KPSP-KMRY

FLIGHT INFORMATION

Flight Status: Arrived
Operator: Privately registered:
United States
More flights under this callsign
Pilot: Wes C. (14639)
Aircraft: PIPER PA-31/31P NAVAJO CHIEFTAIN
(PA31)
More flights by this aircraft type
Origin: KPSP Palm Springs Intl
United States
Destination: KMRY Monterey Peninsula
United States
More flights between these airports :: More routes between these airports
Route: PSP V386 PMD V197 EHF V248 PRB V25 WIGGL
File this flight plan on PilotEdge
Remarks:
Altitude:
(Current/Filed)
14,000ft
Speed:
(Current/Filed)
200kts
Departed: 18-Jun-23 07:58 AM
Arrived: 18-Jun-23 09:28 AM
Distance/Time
Traveled:
309nm/1:30
Distance/Time
To Go:
Arrived

Flight Plot

Page will automatically refresh every two minutes.

Flight plan parsing failed; only flown route is shown


Map Options




Map Legend


Flown Route
Filed Route
Departure Airport
Arrival Airport
Navaid (VOR, NDB)
Fix

Horizontal Profiles

Position Reports

Time Latitude Longitude Heading Altitude Ground
Speed
18-Jun-23 07:24 33.820796 -116.495964 55 391ft 0kts
18-Jun-23 07:25 33.820796 -116.495964 55 391ft 0kts
18-Jun-23 07:26 33.820796 -116.495964 55 391ft 0kts
18-Jun-23 07:27 33.820796 -116.495964 55 391ft 0kts
18-Jun-23 07:28 33.820796 -116.495964 55 391ft 0kts
18-Jun-23 07:29 33.820796 -116.495964 55 391ft 0kts
18-Jun-23 07:30 33.820796 -116.495964 55 391ft 0kts
18-Jun-23 07:31 33.820796 -116.495964 55 391ft 0kts
18-Jun-23 07:32 33.820796 -116.495964 55 391ft 0kts
18-Jun-23 07:33 33.820796 -116.495964 55 391ft 0kts
18-Jun-23 07:34 33.820796 -116.495964 55 391ft 0kts
18-Jun-23 07:35 33.820796 -116.495964 55 391ft 0kts
18-Jun-23 07:36 33.820796 -116.495964 55 391ft 0kts
18-Jun-23 07:37 33.820796 -116.495964 55 391ft 0kts
18-Jun-23 07:38 33.820796 -116.495964 55 391ft 0kts
18-Jun-23 07:39 33.820796 -116.495964 55 391ft 0kts
18-Jun-23 07:40 33.820796 -116.495964 55 391ft 0kts
18-Jun-23 07:41 33.820796 -116.495964 55 391ft 0kts
18-Jun-23 07:42 33.820796 -116.495964 55 391ft 0kts
18-Jun-23 07:43 33.820796 -116.495964 55 391ft 0kts
18-Jun-23 07:44 33.820796 -116.495964 55 391ft 0kts
18-Jun-23 07:45 33.820796 -116.495964 55 391ft 0kts
18-Jun-23 07:46 33.820796 -116.495964 55 391ft 0kts
18-Jun-23 07:47 33.820796 -116.495964 55 391ft 0kts
18-Jun-23 07:48 33.820796 -116.495964 55 391ft 0kts
18-Jun-23 07:49 33.820796 -116.495964 55 391ft 0kts
18-Jun-23 07:50 33.820796 -116.495964 55 391ft 0kts
18-Jun-23 07:51 33.820796 -116.495964 55 391ft 0kts
18-Jun-23 07:52 33.820796 -116.495964 55 391ft 0kts
18-Jun-23 07:53 33.820807 -116.495944 55 391ft 0kts
18-Jun-23 07:54 33.820588 -116.495492 165 390ft 3kts
18-Jun-23 07:55 33.819510 -116.496647 233 391ft 4kts
18-Jun-23 07:56 33.819171 -116.497185 233 392ft 3kts
18-Jun-23 07:57 33.823847 -116.502514 323 415ft 114kts
18-Jun-23 07:58 33.857029 -116.530918 327 2217ft 168kts
18-Jun-23 07:59 33.898518 -116.557517 0 4342ft 176kts
18-Jun-23 08:00 33.907790 -116.515368 118 6478ft 166kts
18-Jun-23 08:01 33.883601 -116.460408 116 7622ft 196kts
18-Jun-23 08:02 33.882412 -116.403252 41 9168ft 191kts
18-Jun-23 08:03 33.932138 -116.411448 315 10341ft 206kts
18-Jun-23 08:04 33.971639 -116.461571 313 11538ft 208kts
18-Jun-23 08:05 34.021511 -116.491716 341 12945ft 197kts
18-Jun-23 08:06 34.079564 -116.512141 345 13165ft 234kts
18-Jun-23 08:07 34.145243 -116.536888 342 13026ft 248kts
18-Jun-23 08:08 34.209643 -116.562622 343 13038ft 242kts
18-Jun-23 08:09 34.272384 -116.586998 343 13569ft 233kts
18-Jun-23 08:10 34.334116 -116.612347 344 14046ft 245kts
18-Jun-23 08:11 34.401107 -116.638010 343 14046ft 256kts
18-Jun-23 08:12 34.468768 -116.664736 342 14044ft 256kts
18-Jun-23 08:13 34.506814 -116.729012 278 14046ft 252kts
18-Jun-23 08:14 34.516140 -116.812781 274 14045ft 252kts
18-Jun-23 08:15 34.524353 -116.897245 274 14048ft 252kts
18-Jun-23 08:16 34.532499 -116.981639 274 14086ft 253kts
18-Jun-23 08:17 34.540606 -117.066701 274 14125ft 257kts
18-Jun-23 08:18 34.548831 -117.153501 274 14156ft 262kts
18-Jun-23 08:19 34.557147 -117.241735 274 14156ft 264kts
18-Jun-23 08:20 34.565458 -117.330742 274 14157ft 265kts
18-Jun-23 08:21 34.573676 -117.419464 274 14157ft 265kts
18-Jun-23 08:22 34.581890 -117.508850 274 14157ft 265kts
18-Jun-23 08:23 34.589983 -117.597642 274 14158ft 265kts
18-Jun-23 08:24 34.598062 -117.686967 273 14139ft 266kts
18-Jun-23 08:25 34.606039 -117.776003 273 14121ft 265kts
18-Jun-23 08:26 34.613971 -117.865213 273 14104ft 265kts
18-Jun-23 08:27 34.621812 -117.954130 273 14109ft 265kts
18-Jun-23 08:28 34.629730 -118.044045 275 14114ft 270kts
18-Jun-23 08:29 34.673092 -118.117907 313 14118ft 273kts
18-Jun-23 08:30 34.725078 -118.185602 314 14113ft 274kts
18-Jun-23 08:31 34.776900 -118.253140 314 14104ft 274kts
18-Jun-23 08:32 34.829116 -118.321322 314 14038ft 275kts
18-Jun-23 08:33 34.881138 -118.389388 314 14063ft 274kts
18-Jun-23 08:34 34.932683 -118.457097 315 14106ft 270kts
18-Jun-23 08:35 34.983479 -118.523763 315 14131ft 266kts
18-Jun-23 08:36 35.034289 -118.587881 320 14138ft 260kts
18-Jun-23 08:37 35.086837 -118.647045 320 14126ft 257kts
18-Jun-23 08:38 35.139536 -118.706342 320 14091ft 256kts
18-Jun-23 08:39 35.191940 -118.765398 320 14035ft 257kts
18-Jun-23 08:40 35.244438 -118.824673 319 13999ft 256kts
18-Jun-23 08:41 35.296937 -118.884030 319 13999ft 257kts
18-Jun-23 08:42 35.349458 -118.943563 318 13999ft 258kts
18-Jun-23 08:43 35.402247 -119.003522 318 13999ft 259kts
18-Jun-23 08:44 35.455229 -119.063837 318 14000ft 259kts
18-Jun-23 08:45 35.491537 -119.137811 284 14003ft 260kts
18-Jun-23 08:46 35.508397 -119.224317 282 14006ft 260kts
18-Jun-23 08:47 35.524559 -119.310850 282 14009ft 261kts
18-Jun-23 08:48 35.540698 -119.397645 282 14009ft 261kts
18-Jun-23 08:49 35.556774 -119.484473 282 14010ft 261kts
18-Jun-23 08:50 35.572844 -119.571621 282 14010ft 261kts
18-Jun-23 08:51 35.588855 -119.658822 282 14009ft 261kts
18-Jun-23 08:52 35.604749 -119.745764 282 14008ft 261kts
18-Jun-23 08:53 35.620559 -119.832630 282 14027ft 260kts
18-Jun-23 08:54 35.636253 -119.919224 282 14054ft 260kts
18-Jun-23 08:55 35.648054 -120.007594 272 13998ft 261kts
18-Jun-23 08:56 35.651856 -120.096083 272 14000ft 261kts
18-Jun-23 08:57 35.655489 -120.185523 272 14000ft 261kts
18-Jun-23 08:58 35.659038 -120.274465 272 14000ft 261kts
18-Jun-23 08:59 35.662537 -120.363772 272 14000ft 261kts
18-Jun-23 09:00 35.665964 -120.452959 272 14001ft 261kts
18-Jun-23 09:01 35.669315 -120.541876 272 14001ft 261kts
18-Jun-23 09:02 35.680932 -120.628202 310 14009ft 260kts
18-Jun-23 09:03 35.734869 -120.687477 322 13999ft 260kts
18-Jun-23 09:04 35.791516 -120.742601 322 13999ft 260kts
18-Jun-23 09:05 35.848125 -120.797677 322 13999ft 260kts
18-Jun-23 09:06 35.904931 -120.853047 322 13981ft 260kts
18-Jun-23 09:07 35.961655 -120.908651 322 13982ft 260kts
18-Jun-23 09:08 36.018233 -120.963811 322 13982ft 260kts
18-Jun-23 09:09 36.074911 -121.019428 323 13984ft 259kts
18-Jun-23 09:10 36.131050 -121.074440 323 13154ft 251kts
18-Jun-23 09:11 36.184499 -121.127129 323 11749ft 241kts
18-Jun-23 09:12 36.236170 -121.178086 323 10357ft 236kts
18-Jun-23 09:13 36.287320 -121.228508 323 8638ft 245kts
18-Jun-23 09:14 36.338953 -121.282575 323 6995ft 229kts
18-Jun-23 09:15 36.383926 -121.327668 323 6980ft 197kts
18-Jun-23 09:16 36.418563 -121.380171 305 6808ft 205kts
18-Jun-23 09:17 36.446305 -121.444400 292 6219ft 216kts
18-Jun-23 09:18 36.469467 -121.511065 297 6076ft 204kts
18-Jun-23 09:19 36.491478 -121.570808 293 5546ft 176kts
18-Jun-23 09:20 36.506231 -121.619899 297 4851ft 121kts
18-Jun-23 09:21 36.519838 -121.656969 299 4022ft 111kts
18-Jun-23 09:22 36.534481 -121.691223 298 3124ft 106kts
18-Jun-23 09:23 36.547735 -121.727784 295 1955ft 117kts
18-Jun-23 09:24 36.558747 -121.762086 294 1896ft 120kts
18-Jun-23 09:25 36.571373 -121.798721 297 981ft 104kts
18-Jun-23 09:26 36.583414 -121.829347 294 316ft 95kts
18-Jun-23 09:27 36.586949 -121.838707 26 226ft 3kts
18-Jun-23 09:28 36.587338 -121.838960 290 222ft 9kts
18-Jun-23 09:29 36.587588 -121.839050 112 220ft 0kts

Navigation Log

Ident Type
Flight plan parsing failed, navigation log unavailable